Port Washington, Wisconsin
Current Conditions -  °F | °C
As of 7:35 PM on Tuesday 25 Nov 2014 (Local Time) from KETB Reporting Station
Overcast Overcast  
Wind Chill: 21°   Ceiling: 1400
Heat Index: 21°   Visibility: 10mi
Dew Point: 16°   Wind: 3mph
Humidity: 80%   Direction: 270°W
Pressure: 30.13"   Gusts: NA
Location:  43.39°N, 87.87°W
Report Text: KETB 260135Z AUTO 27003KT 10SM OVC014 M06/M09 A3013 RMK AO2
Loading
Personal Weather Stations






























Interactive Weather Map New forecast layout! Learn more

10-Day Weather Forecast

Advertisements
Track Severe Weather on mobile